Time;durP1;ratioP1;P1;durP2;ratioP2;P2;SDS_P1;SDS_P2;PMS_P1;PMS_P2;Temp;Humidity;BMP_temperature;BMP_pressure;BME280_temperature;BME280_humidity;BME280_pressure;Samples;Min_cycle;Max_cycle;Signal;HPM_P1;HPM_P2
2023/07/11 00:02:53;;;;;;;8.37;4.60;;;;;;;24.51;51.80;97217.03;5030067;28;20704;-78
2023/07/11 00:06:22;;;;;;;5.93;4.90;;;;;;;24.54;51.63;97222.03;5030199;28;20232;-81
2023/07/11 00:09:44;;;;;;;6.90;4.80;;;;;;;24.43;52.05;97205.53;5030917;28;20301;-80
2023/07/11 00:13:05;;;;;;;6.50;4.80;;;;;;;24.53;51.79;97219.53;5046800;28;20289;-81
2023/07/11 00:16:25;;;;;;;8.53;4.90;;;;;;;24.44;52.12;97213.31;5047953;28;20270;-81
2023/07/11 00:19:47;;;;;;;8.10;5.50;;;;;;;24.58;52.51;97214.63;5016364;28;20203;-80
2023/07/11 00:23:10;;;;;;;7.37;5.17;;;;;;;24.39;52.86;97215.59;5031444;28;20605;-81
2023/07/11 00:26:31;;;;;;;5.60;5.10;;;;;;;24.29;52.07;97217.50;5047329;28;20198;-80
2023/07/11 00:29:52;;;;;;;5.27;4.47;;;;;;;24.15;51.99;97218.00;5048102;28;20222;-80
2023/07/11 00:33:14;;;;;;;5.17;4.67;;;;;;;24.29;51.38;97221.94;5052237;28;20202;-80
2023/07/11 00:36:36;;;;;;;5.07;4.57;;;;;;;24.07;52.19;97212.63;5030323;28;20200;-82
2023/07/11 00:39:58;;;;;;;5.30;4.80;;;;;;;24.00;52.70;97215.00;5029793;28;20622;-79
2023/07/11 00:43:19;;;;;;;9.17;5.50;;;;;;;23.91;53.76;97200.00;5046314;28;20226;-79
2023/07/11 00:46:26;;;;;;;10.33;5.47;;;;;;;23.96;54.06;97205.69;5047090;28;20249;-81
2023/07/11 00:49:46;;;;;;;7.87;5.70;;;;;;;23.80;55.19;97202.03;5031925;28;20202;-80
2023/07/11 00:53:09;;;;;;;14.80;5.17;;;;;;;23.91;54.13;97192.06;5027745;28;20743;-81
2023/07/11 00:56:30;;;;;;;7.40;5.97;;;;;;;23.82;53.30;97163.84;5029842;28;20766;-81
2023/07/11 00:59:51;;;;;;;6.53;5.13;;;;;;;24.24;53.17;97195.91;5028869;28;20347;-80
2023/07/11 01:03:13;;;;;;;6.70;5.20;;;;;;;24.18;53.44;97191.22;5029710;28;20213;-81
2023/07/11 01:06:37;;;;;;;5.90;5.30;;;;;;;24.02;53.85;97202.47;5029207;28;20233;-77
2023/07/11 01:09:26;;;;;;;6.10;5.10;;;;;;;23.96;54.04;97179.25;5015161;28;20194;-81
2023/07/11 01:12:53;;;;;;;5.40;4.90;;;;;;;24.11;53.28;97184.88;5016000;28;20694;-78
2023/07/11 01:16:14;;;;;;;7.63;4.90;;;;;;;24.34;52.46;97179.97;5029332;28;20707;-82
2023/07/11 01:19:35;;;;;;;5.57;5.00;;;;;;;24.43;51.70;97173.75;5028381;28;20317;-82
2023/07/11 01:22:57;;;;;;;7.20;5.30;;;;;;;24.48;51.28;97176.78;5029616;28;20235;-80
2023/07/11 01:26:24;;;;;;;5.73;4.70;;;;;;;24.56;50.89;97175.06;5029140;28;20203;-80
2023/07/11 01:29:44;;;;;;;7.23;5.33;;;;;;;24.69;50.72;97187.91;5029271;28;20741;-84
2023/07/11 01:33:06;;;;;;;5.67;4.90;;;;;;;24.61;50.74;97179.84;5012359;28;20266;-79
2023/07/11 01:36:26;;;;;;;6.53;5.67;;;;;;;24.65;50.95;97183.88;5031214;28;20292;-78
2023/07/11 01:39:47;;;;;;;9.10;5.30;;;;;;;24.83;50.34;97179.44;5028700;28;20211;-81
2023/07/11 01:43:11;;;;;;;8.53;5.57;;;;;;;24.94;49.34;97179.16;5012238;28;20697;-83
2023/07/11 01:46:32;;;;;;;7.97;5.90;;;;;;;25.06;48.60;97167.31;5046086;28;20581;-80
2023/07/11 01:49:53;;;;;;;7.90;5.93;;;;;;;25.36;47.97;97174.78;5028752;28;20191;-79
2023/07/11 01:53:17;;;;;;;7.27;5.20;;;;;;;25.28;48.38;97174.75;5029364;28;20676;-78
2023/07/11 01:56:38;;;;;;;7.47;5.57;;;;;;;25.31;48.07;97166.47;5029459;28;20686;-81
2023/07/11 01:59:58;;;;;;;7.47;5.23;;;;;;;25.41;47.67;97166.38;5027835;28;20736;-79
2023/07/11 02:03:31;;;;;;;6.13;5.47;;;;;;;25.26;48.26;97165.28;5046654;28;20192;-82
2023/07/11 02:06:52;;;;;;;7.70;5.03;;;;;;;25.33;47.68;97174.25;5028727;28;20597;-83
2023/07/11 02:10:13;;;;;;;8.13;5.50;;;;;;;25.26;48.21;97171.41;5045930;28;20200;-80
2023/07/11 02:13:34;;;;;;;8.40;5.70;;;;;;;25.23;47.66;97174.38;5045961;28;20231;-83
2023/07/11 02:16:55;;;;;;;5.80;5.17;;;;;;;25.24;47.57;97170.75;5027934;28;20203;-82
2023/07/11 02:20:15;;;;;;;6.07;5.10;;;;;;;25.34;47.46;97170.63;4998254;28;20290;-85
2023/07/11 02:23:37;;;;;;;7.97;5.60;;;;;;;25.42;46.75;97168.03;5013794;28;20276;-79
2023/07/11 02:26:18;;;;;;;5.63;5.03;;;;;;;25.28;47.45;97176.56;4997064;28;20719;-80
2023/07/11 02:28:47;;;;;;;10.27;6.03;;;;;;;24.87;47.65;97109.25;5011981;28;20202;-80
2023/07/11 02:31:14;;;;;;;8.53;5.40;;;;;;;25.17;47.45;97158.25;5028962;28;20657;-80
2023/07/11 02:33:42;;;;;;;9.50;5.80;;;;;;;25.24;47.49;97172.56;5011932;28;20590;-81
2023/07/11 02:36:49;;;;;;;7.43;5.77;;;;;;;25.32;46.97;97181.41;5013177;28;20229;-81
2023/07/11 02:40:10;;;;;;;8.43;5.53;;;;;;;25.30;47.60;97179.88;5030418;28;20638;-78
2023/07/11 02:43:31;;;;;;;10.37;5.37;;;;;;;25.28;47.49;97176.56;5026739;28;20212;-82
2023/07/11 02:46:51;;;;;;;14.17;5.80;;;;;;;25.28;47.45;97164.13;5011206;28;20199;-82
2023/07/11 02:50:12;;;;;;;7.87;5.03;;;;;;;25.34;46.77;97155.56;5031543;28;20201;-83
2023/07/11 02:53:34;;;;;;;8.67;4.97;;;;;;;25.33;46.11;97153.88;5046977;28;20202;-80
2023/07/11 02:56:55;;;;;;;9.10;5.17;;;;;;;25.49;46.11;97174.38;5031655;28;20283;-82
2023/07/11 03:00:17;;;;;;;11.13;5.47;;;;;;;25.47;46.40;97166.56;5030572;28;20229;-80
2023/07/11 03:03:39;;;;;;;6.37;5.00;;;;;;;25.50;46.58;97182.19;5045647;28;20200;-79
2023/07/11 03:06:59;;;;;;;6.50;5.13;;;;;;;25.45;46.43;97171.19;5031599;28;20602;-80
2023/07/11 03:10:23;;;;;;;7.17;5.07;;;;;;;25.33;46.39;97174.25;5045790;28;20221;-81
2023/07/11 03:13:44;;;;;;;9.80;4.67;;;;;;;25.52;45.91;97180.19;5027643;28;20685;-80
2023/07/11 03:17:09;;;;;;;7.63;5.60;;;;;;;25.50;45.99;97176.88;5034645;28;20747;-80
2023/07/11 03:20:31;;;;;;;6.57;4.57;;;;;;;25.57;45.38;97177.91;5025415;28;20713;-80
2023/07/11 03:23:54;;;;;;;5.33;4.77;;;;;;;25.59;45.25;97186.53;5050464;28;20205;-81
2023/07/11 03:27:14;;;;;;;11.90;5.27;;;;;;;25.58;45.91;97184.03;5047945;28;20245;-82
2023/07/11 03:30:36;;;;;;;6.20;5.10;;;;;;;25.56;45.64;97173.56;5045006;28;20209;-79
2023/07/11 03:33:57;;;;;;;7.27;4.90;;;;;;;25.50;46.54;97181.34;5043210;28;20261;-81
2023/07/11 03:37:19;;;;;;;6.67;4.57;;;;;;;25.57;46.23;97179.72;5047935;28;20271;-80
2023/07/11 03:40:40;;;;;;;7.33;5.53;;;;;;;25.67;46.14;97181.25;5049149;28;20212;-79
2023/07/11 03:44:01;;;;;;;9.67;5.80;;;;;;;25.62;46.53;97172.94;5050010;28;20214;-84
2023/07/11 03:47:22;;;;;;;10.77;6.23;;;;;;;25.80;46.32;97189.59;5050779;28;20251;-82
2023/07/11 03:50:43;;;;;;;5.43;4.90;;;;;;;25.75;46.23;97177.78;5067783;28;20287;-85
2023/07/11 03:54:04;;;;;;;9.23;6.27;;;;;;;26.12;46.44;97193.38;5042097;28;20251;-82
2023/07/11 03:57:26;;;;;;;8.83;5.33;;;;;;;26.09;46.90;97183.09;5057458;28;20700;-80
2023/07/11 04:00:44;;;;;;;7.80;5.60;;;;;;;26.13;47.15;97192.38;5026802;28;20206;-82
2023/07/11 04:03:53;;;;;;;9.80;6.27;;;;;;;26.40;46.32;97186.75;5051741;28;20627;-83
2023/07/11 04:07:14;;;;;;;7.07;5.33;;;;;;;26.38;46.03;97199.38;5069801;28;20316;-83
2023/07/11 04:10:35;;;;;;;7.00;5.10;;;;;;;25.73;47.21;97183.28;5065203;28;20854;-88
2023/07/11 04:13:56;;;;;;;9.00;6.07;;;;;;;25.70;47.81;97204.81;5054837;28;20224;-85
2023/07/11 04:17:21;;;;;;;9.77;6.03;;;;;;;25.42;48.67;97176.84;5039839;28;20204;-83
2023/07/11 04:20:43;;;;;;;8.37;5.70;;;;;;;25.48;48.25;97197.41;5066827;28;20739;-83
2023/07/11 04:24:04;;;;;;;8.47;6.20;;;;;;;25.89;47.80;97186.94;5050182;28;20952;-82
2023/07/11 04:27:28;;;;;;;9.87;5.80;;;;;;;26.55;45.96;97209.03;5069868;28;20237;-84
2023/07/11 04:30:48;;;;;;;10.30;6.10;;;;;;;26.94;45.44;97207.41;5049836;28;20243;-81
2023/07/11 04:34:12;;;;;;;7.97;5.37;;;;;;;27.28;44.88;97205.38;5067788;28;20738;-83
2023/07/11 04:37:35;;;;;;;9.03;5.53;;;;;;;27.56;43.54;97218.28;5052396;28;20205;-79
2023/07/11 04:40:55;;;;;;;7.90;5.77;;;;;;;27.94;43.16;97197.03;5035052;28;20208;-80
2023/07/11 04:44:18;;;;;;;11.23;6.47;;;;;;;28.09;42.93;97215.78;5032365;28;20201;-85
2023/07/11 04:47:39;;;;;;;8.30;6.03;;;;;;;28.14;43.20;97226.75;5049400;28;20236;-80
2023/07/11 04:51:03;;;;;;;7.20;5.83;;;;;;;28.25;42.81;97222.88;5021048;28;20269;-79
2023/07/11 04:54:24;;;;;;;8.27;6.10;;;;;;;27.94;42.65;97191.72;5032852;28;20189;-82
2023/07/11 04:57:49;;;;;;;6.13;5.33;;;;;;;28.40;41.61;97227.25;5033030;28;20197;-82
2023/07/11 05:01:14;;;;;;;13.00;6.30;;;;;;;28.02;42.30;97220.16;5049092;28;20634;-78
2023/07/11 05:04:37;;;;;;;7.60;5.17;;;;;;;27.70;43.26;97212.28;5066633;28;20212;-80
2023/07/11 05:07:59;;;;;;;8.90;5.23;;;;;;;27.57;44.46;97227.94;5067048;28;20225;-78
2023/07/11 05:11:03;;;;;;;8.73;5.73;;;;;;;27.50;44.71;97229.63;5067156;28;20193;-81
2023/07/11 05:14:25;;;;;;;8.93;6.40;;;;;;;27.39;45.74;97228.97;5033955;28;20201;-82
2023/07/11 05:17:48;;;;;;;11.40;6.00;;;;;;;27.26;46.47;97212.72;5034267;28;20197;-83
2023/07/11 05:21:11;;;;;;;12.10;5.93;;;;;;;27.43;45.95;97231.31;5066809;28;20279;-83
2023/07/11 05:24:32;;;;;;;10.83;5.63;;;;;;;27.45;45.60;97224.00;5032123;28;20201;-83
2023/07/11 05:27:55;;;;;;;10.10;5.70;;;;;;;27.59;45.29;97232.09;5065692;28;20224;-82
2023/07/11 05:31:19;;;;;;;8.87;5.93;;;;;;;27.75;45.80;97239.19;5033574;28;20280;-83
2023/07/11 05:34:41;;;;;;;7.10;5.70;;;;;;;27.67;44.88;97241.88;5050524;28;20201;-78
2023/07/11 05:38:02;;;;;;;6.97;5.07;;;;;;;27.72;44.26;97236.91;5032416;28;20286;-83
2023/07/11 05:41:23;;;;;;;8.57;7.77;;;;;;;27.75;44.14;97239.19;5050289;28;20201;-84
2023/07/11 05:44:44;;;;;;;10.20;8.57;;;;;;;27.19;44.29;97153.19;5065477;28;20224;-84
2023/07/11 05:48:05;;;;;;;8.07;5.33;;;;;;;27.67;45.26;97239.22;5016483;28;20267;-79
2023/07/11 05:51:26;;;;;;;12.37;5.97;;;;;;;27.77;44.44;97243.34;5048690;28;20596;-80
2023/07/11 05:54:49;;;;;;;9.07;5.53;;;;;;;28.05;44.16;97225.13;5050300;28;20197;-82
2023/07/11 05:58:00;;;;;;;8.17;5.47;;;;;;;28.35;43.42;97232.28;5049672;28;20592;-83
2023/07/11 06:00:42;;;;;;;6.50;5.20;;;;;;;28.08;43.29;97225.63;5046982;28;20217;-79
2023/07/11 06:03:53;;;;;;;10.40;5.83;;;;;;;27.97;42.72;97243.78;5048484;28;20213;-82
2023/07/11 06:07:16;;;;;;;9.00;6.33;;;;;;;28.05;42.15;97233.09;5064633;28;20330;-83
2023/07/11 06:10:37;;;;;;;7.07;5.80;;;;;;;28.45;42.11;97242.72;5049904;28;20201;-83
2023/07/11 06:13:58;;;;;;;10.50;7.27;;;;;;;28.87;41.42;97235.94;5047416;28;20277;-83
2023/07/11 06:17:20;;;;;;;7.67;5.47;;;;;;;29.00;40.14;97248.66;5031530;28;20201;-80
2023/07/11 06:20:40;;;;;;;7.10;5.73;;;;;;;29.11;40.47;97228.75;5033234;28;20688;-82
2023/07/11 06:24:02;;;;;;;9.17;5.30;;;;;;;29.27;40.33;97233.94;5054423;28;20681;-82
2023/07/11 06:27:23;;;;;;;8.13;6.30;;;;;;;29.41;39.51;97217.97;5053548;28;20799;-82
2023/07/11 06:34:39;;;;;;;6.27;5.40;;;;;;;29.57;38.91;97249.81;5058672;28;20250;-80
2023/07/11 06:38:00;;;;;;;7.20;5.10;;;;;;;29.46;39.82;97230.75;5030937;28;20210;-83
2023/07/11 06:41:22;;;;;;;7.37;5.60;;;;;;;29.77;38.87;97238.63;5056811;28;20252;-78
2023/07/11 06:44:44;;;;;;;7.10;5.33;;;;;;;29.10;38.37;97094.53;5050106;28;20198;-83
2023/07/11 06:48:13;;;;;;;9.93;6.27;;;;;;;30.11;37.39;97229.00;5050351;28;20746;-79
2023/07/11 06:51:21;;;;;;;10.87;5.77;;;;;;;30.24;37.83;97223.00;5047530;28;20205;-79
2023/07/11 06:54:03;;;;;;;11.47;6.63;;;;;;;30.59;37.15;97218.69;4999571;28;20288;-77
2023/07/11 06:57:11;;;;;;;8.57;5.20;;;;;;;30.36;37.92;97224.19;5011776;28;20251;-80
2023/07/11 07:00:35;;;;;;;8.30;5.70;;;;;;;30.37;38.05;97221.34;5027734;28;20194;-79
2023/07/11 07:04:00;;;;;;;9.23;6.03;;;;;;;30.35;37.59;97231.41;5029682;28;20193;-82
2023/07/11 07:07:24;;;;;;;6.73;5.40;;;;;;;30.44;36.56;97222.22;5010852;28;20685;-83
2023/07/11 07:10:46;;;;;;;10.10;5.60;;;;;;;30.55;36.25;97223.59;5043730;28;20285;-82
2023/07/11 07:14:09;;;;;;;9.53;5.77;;;;;;;30.44;36.76;97216.88;5044653;28;20220;-76
2023/07/11 07:17:31;;;;;;;9.93;5.80;;;;;;;30.53;36.33;97207.75;5029419;28;20230;-80
2023/07/11 07:20:53;;;;;;;9.07;5.57;;;;;;;30.57;36.14;97205.50;5014029;28;20198;-79
2023/07/11 07:23:46;;;;;;;7.73;5.67;;;;;;;30.86;36.83;97223.28;5015522;28;20198;-78
2023/07/11 07:26:19;;;;;;;6.57;5.23;;;;;;;30.76;36.07;97220.09;5049787;28;20495;-80
2023/07/11 07:29:45;;;;;;;8.90;5.47;;;;;;;30.86;35.55;97223.28;5030448;28;20212;-79
2023/07/11 07:33:10;;;;;;;7.97;6.07;;;;;;;31.10;36.05;97207.66;5030918;28;20510;-78
2023/07/11 07:37:07;;;;;;;8.67;5.20;;;;;;;31.37;35.40;97218.59;5020214;28;20441;-80
2023/07/11 07:40:35;;;;;;;6.77;4.77;;;;;;;31.03;35.29;97160.47;5018348;28;20202;-78
2023/07/11 07:44:03;;;;;;;5.90;5.13;;;;;;;31.32;36.19;97219.97;5031010;28;20310;-82
2023/07/11 07:47:30;;;;;;;9.82;6.45;;;;;;;31.42;36.22;97216.16;5016649;28;20222;-83
2023/07/11 07:55:32;;;;;;;10.10;5.97;;;;;;;31.39;35.41;97213.88;5031318;28;20657;-84
2023/07/11 07:59:22;;;;;;;10.97;6.37;;;;;;;31.70;35.23;97207.06;5030486;28;20292;-81
2023/07/11 08:03:03;;;;;;;8.37;4.87;;;;;;;31.54;35.95;97215.41;5047003;28;20202;-77
2023/07/11 08:06:28;;;;;;;10.57;6.37;;;;;;;31.27;35.01;97184.94;5032546;28;20855;-78
2023/07/11 08:09:59;;;;;;;7.27;5.53;;;;;;;31.51;35.87;97209.63;5014282;28;20681;-83
2023/07/11 08:13:26;;;;;;;8.60;5.22;;;;;;;31.63;35.67;97203.53;5017371;28;20721;-80
2023/07/11 08:16:48;;;;;;;11.02;7.30;;;;;;;31.65;35.46;97204.16;5015650;28;20198;-83
2023/07/11 08:20:09;;;;;;;6.93;5.27;;;;;;;31.48;35.05;97207.34;5032157;28;20654;-78
2023/07/11 08:23:34;;;;;;;8.57;4.97;;;;;;;31.35;35.19;97212.59;5016598;28;20252;-77
2023/07/11 08:26:59;;;;;;;5.90;4.67;;;;;;;30.91;34.66;97216.38;5016238;28;20202;-77
2023/07/11 08:30:20;;;;;;;7.00;5.63;;;;;;;31.44;35.46;97206.91;5033393;28;20190;-78
2023/07/11 08:33:11;;;;;;;5.57;4.90;;;;;;;31.52;34.83;97204.09;5047455;28;20194;-78
2023/07/11 08:36:20;;;;;;;7.27;4.73;;;;;;;31.56;34.95;97194.63;5032973;28;20278;-85
2023/07/11 08:39:41;;;;;;;7.38;5.60;;;;;;;31.70;34.84;97207.06;5033863;28;20194;-82
2023/07/11 08:42:54;;;;;;;8.38;6.38;;;;;;;31.62;33.60;97201.03;5027121;28;20277;-78
2023/07/11 08:45:29;;;;;;;7.93;5.50;;;;;;;31.69;34.85;97202.75;5032322;28;20213;-81
2023/07/11 08:48:05;;;;;;;7.38;4.68;;;;;;;31.66;35.40;97200.44;5049619;28;20314;-79
2023/07/11 08:50:57;;;;;;;6.75;5.00;;;;;;;31.84;34.35;97203.44;5048647;28;20266;-78
2023/07/11 08:54:28;;;;;;;5.97;5.13;;;;;;;31.58;35.01;97200.63;5065337;28;20680;-78
2023/07/11 08:57:54;;;;;;;6.13;5.03;;;;;;;31.49;35.71;97182.22;5032325;28;20209;-79
2023/07/11 09:01:17;;;;;;;9.45;5.63;;;;;;;31.77;34.09;97207.94;5068061;28;20586;-75
2023/07/11 09:04:41;;;;;;;7.35;5.15;;;;;;;31.66;34.81;97200.44;5067159;28;20251;-78
2023/07/11 09:08:03;;;;;;;5.75;4.80;;;;;;;31.39;34.43;97182.56;5031517;28;20225;-83
2023/07/11 09:11:29;;;;;;;7.57;5.22;;;;;;;31.38;35.24;97205.00;5032117;28;20201;-78
2023/07/11 09:14:32;;;;;;;7.13;5.30;;;;;;;31.35;35.30;97185.81;5046254;28;20206;-78
2023/07/11 09:17:47;;;;;;;8.30;5.47;;;;;;;31.42;35.77;97179.50;5028876;28;20678;-84
2023/07/11 09:21:08;;;;;;;8.18;5.30;;;;;;;31.61;36.12;97197.56;5030272;28;20268;-80
2023/07/11 09:24:12;;;;;;;8.90;5.30;;;;;;;31.61;35.27;97196.72;5046713;28;20255;-80
2023/07/11 09:27:14;;;;;;;10.67;6.30;;;;;;;31.55;35.85;97186.81;5031508;28;20320;-81
2023/07/11 09:30:21;;;;;;;7.50;5.55;;;;;;;31.53;35.62;97192.34;5032437;28;20260;-81
2023/07/11 09:34:01;;;;;;;7.10;6.00;;;;;;;31.74;35.93;97189.56;5046050;28;20685;-82
2023/07/11 09:37:26;;;;;;;7.18;5.40;;;;;;;31.73;36.29;97204.00;5045767;28;20189;-78
2023/07/11 09:40:59;;;;;;;8.50;5.60;;;;;;;31.32;36.49;97182.50;5030254;28;20202;-87
2023/07/11 09:44:22;;;;;;;8.98;5.18;;;;;;;31.67;36.09;97195.94;5030704;28;20288;-80
2023/07/11 09:47:45;;;;;;;7.57;5.27;;;;;;;31.74;35.92;97189.56;5017484;28;20599;-83
2023/07/11 09:50:45;;;;;;;7.17;5.50;;;;;;;31.58;35.22;97189.06;5048494;28;20291;-83
2023/07/11 09:54:07;;;;;;;9.63;5.75;;;;;;;31.55;36.14;97187.59;5028250;28;20197;-81
2023/07/11 09:57:32;;;;;;;11.15;6.15;;;;;;;31.86;36.17;97187.16;5048121;28;20198;-82
2023/07/11 10:00:55;;;;;;;6.55;5.63;;;;;;;32.12;35.51;97184.63;5046351;28;20198;-82
2023/07/11 10:04:22;;;;;;;7.47;5.43;;;;;;;32.12;35.44;97178.44;5014650;28;20208;-81
2023/07/11 10:07:47;;;;;;;8.57;5.55;;;;;;;32.12;34.70;97173.91;4997432;28;20812;-83
2023/07/11 10:11:21;;;;;;;8.75;5.45;;;;;;;32.58;34.14;97182.09;4979463;28;20212;-82
2023/07/11 10:14:43;;;;;;;7.30;5.68;;;;;;;32.54;34.42;97178.16;5012759;28;20202;-82
2023/07/11 10:18:09;;;;;;;8.48;6.00;;;;;;;31.93;35.53;97175.47;5008068;28;20190;-81
2023/07/11 10:21:33;;;;;;;6.57;5.43;;;;;;;31.81;36.44;97171.69;4977312;28;20206;-83
2023/07/11 10:25:07;;;;;;;19.30;6.28;;;;;;;31.73;36.59;97173.69;4978837;28;20211;-83
2023/07/11 10:29:25;;;;;;;7.53;5.28;;;;;;;32.29;35.30;97161.78;5026917;28;20739;-82
2023/07/11 10:33:04;;;;;;;7.60;5.60;;;;;;;32.54;34.65;97164.75;5013065;28;20202;-83
2023/07/11 10:36:30;;;;;;;7.75;5.25;;;;;;;32.50;34.39;97156.28;5025092;28;20344;-80
2023/07/11 10:40:00;;;;;;;7.10;5.72;;;;;;;32.70;34.59;97150.94;4992749;28;20679;-84
2023/07/11 10:43:03;;;;;;;8.55;5.60;;;;;;;32.61;34.16;97162.88;4967800;28;20195;-80
2023/07/11 10:46:23;;;;;;;6.03;5.43;;;;;;;32.56;34.11;97154.66;4953703;28;20327;-87
2023/07/11 10:49:53;;;;;;;6.32;5.35;;;;;;;32.25;34.81;97157.88;5000555;28;20263;-84
2023/07/11 10:53:18;;;;;;;8.35;5.18;;;;;;;32.20;34.54;97133.50;4968686;28;20206;-81
2023/07/11 10:56:48;;;;;;;6.20;5.60;;;;;;;32.70;34.66;97140.22;4984419;28;20258;-83
2023/07/11 11:00:16;;;;;;;9.05;6.50;;;;;;;33.01;33.89;97148.50;4967597;28;20362;-81
2023/07/11 11:03:21;;;;;;;7.57;6.18;;;;;;;33.27;33.60;97143.09;4967051;28;20222;-80
2023/07/11 11:06:32;;;;;;;8.50;5.55;;;;;;;32.77;33.96;97144.53;4986840;28;20221;-82
2023/07/11 11:09:54;;;;;;;9.25;5.68;;;;;;;32.32;34.85;97147.13;5029579;28;20340;-80
2023/07/11 11:13:00;;;;;;;9.73;6.47;;;;;;;32.70;33.95;97137.53;5044979;28;20198;-78
2023/07/11 11:16:08;;;;;;;8.65;5.50;;;;;;;32.66;33.66;97144.34;5012680;28;20665;-82
2023/07/11 11:19:29;;;;;;;6.28;5.40;;;;;;;32.60;33.94;97140.59;5027108;28;20201;-83
2023/07/11 11:22:40;;;;;;;7.55;5.35;;;;;;;32.65;34.00;97140.81;5044719;28;20303;-82
2023/07/11 11:25:52;;;;;;;7.65;5.22;;;;;;;32.92;34.08;97133.59;5027492;28;20214;-82
2023/07/11 11:29:10;;;;;;;5.97;5.13;;;;;;;32.89;33.69;97144.75;5027114;28;20237;-82
2023/07/11 11:32:48;;;;;;;8.93;5.15;;;;;;;32.97;34.04;97138.34;5046842;28;20204;-82
2023/07/11 11:36:18;;;;;;;15.35;6.25;;;;;;;32.64;35.38;97120.41;5052040;28;20288;-82
2023/07/11 11:39:36;;;;;;;6.30;5.68;;;;;;;32.39;35.22;97137.25;5064685;28;20204;-80
2023/07/11 11:43:01;;;;;;;7.30;5.53;;;;;;;32.60;34.97;97129.06;5031932;28;20588;-82
2023/07/11 11:46:24;;;;;;;7.32;6.22;;;;;;;32.64;33.67;97103.47;5032025;28;20593;-80
2023/07/11 11:49:46;;;;;;;6.30;5.40;;;;;;;32.97;34.41;97131.13;5047438;28;20251;-82
2023/07/11 11:53:15;;;;;;;5.88;5.28;;;;;;;32.99;34.28;97123.72;5064402;28;20208;-83
2023/07/11 11:56:40;;;;;;;7.65;6.07;;;;;;;32.62;33.60;97124.31;5029274;28;20202;-83
2023/07/11 12:00:06;;;;;;;9.30;5.25;;;;;;;32.77;35.47;97128.44;5026861;28;20209;-86
2023/07/11 12:03:39;;;;;;;7.68;5.50;;;;;;;32.94;33.72;97120.78;5030067;28;20586;-84
2023/07/11 12:07:03;;;;;;;5.53;5.03;;;;;;;33.23;33.51;97101.56;5017153;28;20243;-82
2023/07/11 12:10:38;;;;;;;5.75;5.15;;;;;;;33.12;33.18;97117.53;5029968;28;20772;-81
2023/07/11 12:13:59;;;;;;;5.28;4.78;;;;;;;32.96;33.14;97121.41;5029874;28;20952;-83
2023/07/11 12:17:21;;;;;;;6.47;5.18;;;;;;;32.54;34.65;97116.47;5031936;28;20213;-81
2023/07/11 12:26:03;;;;;;;9.02;5.40;;;;;;;32.56;34.21;97090.28;4947571;28;20566;-84
2023/07/11 12:29:25;;;;;;;7.78;6.10;;;;;;;33.03;32.30;97092.75;5029724;28;20566;-80
2023/07/11 12:32:32;;;;;;;5.75;5.18;;;;;;;33.16;31.91;97091.91;5057377;28;20197;-79
2023/07/11 12:35:54;;;;;;;8.27;5.90;;;;;;;33.27;30.85;97081.31;5042373;28;20585;-80
2023/07/11 12:39:18;;;;;;;8.13;6.00;;;;;;;33.40;31.47;97081.28;5029844;28;20194;-81
2023/07/11 12:42:43;;;;;;;6.55;5.30;;;;;;;33.42;31.44;97087.28;5037584;28;20197;-82
2023/07/11 12:46:10;;;;;;;8.63;5.40;;;;;;;33.42;32.40;97063.09;5030443;28;20190;-83
2023/07/11 12:49:50;;;;;;;7.78;5.75;;;;;;;33.58;32.30;97078.78;5029254;28;20197;-83
2023/07/11 13:12:31;;;;;;;6.15;5.43;;;;;;;33.16;32.34;97063.16;4894313;29;20847;-84
2023/07/11 13:16:00;;;;;;;10.70;5.68;;;;;;;32.89;33.36;97058.88;4888942;29;20211;-84
2023/07/11 13:19:53;;;;;;;6.82;5.93;;;;;;;33.08;32.60;97070.66;4890970;29;20294;-83
2023/07/11 13:23:21;;;;;;;7.78;6.50;;;;;;;32.99;31.83;97061.16;4890063;29;20684;-82
2023/07/11 13:27:05;;;;;;;8.75;6.28;;;;;;;33.11;31.75;97062.16;4905124;29;20214;-86
2023/07/11 13:30:36;;;;;;;9.18;5.82;;;;;;;33.26;31.75;97057.38;4928316;29;20206;-84
2023/07/11 13:34:04;;;;;;;8.48;5.43;;;;;;;32.77;33.13;97060.53;4969361;28;20267;-81
2023/07/11 13:37:40;;;;;;;8.45;5.38;;;;;;;32.61;32.86;97061.78;4990451;28;20234;-86
2023/07/11 13:41:08;;;;;;;6.25;5.65;;;;;;;32.52;33.28;97068.38;5016348;28;20816;-79
2023/07/11 13:44:37;;;;;;;8.10;6.30;;;;;;;32.80;32.99;97054.75;4982007;28;20212;-84
2023/07/11 13:48:11;;;;;;;6.90;5.38;;;;;;;32.84;33.18;97056.81;4968742;28;20243;-86
2023/07/11 13:51:05;;;;;;;8.32;5.75;;;;;;;33.05;33.16;97057.63;4981866;28;20211;-85
2023/07/11 13:54:33;;;;;;;5.93;5.28;;;;;;;32.94;34.95;97072.47;4954106;28;20203;-81
2023/07/11 13:57:56;;;;;;;7.13;5.43;;;;;;;33.10;34.11;97055.97;4984642;28;20200;-85
2023/07/11 14:01:25;;;;;;;8.25;5.82;;;;;;;33.13;34.25;97068.97;4970927;28;20204;-81
2023/07/11 14:08:43;;;;;;;8.55;5.30;;;;;;;32.84;33.54;97074.78;4948061;28;20248;-80
2023/07/11 14:12:33;;;;;;;7.22;5.50;;;;;;;32.72;33.83;97063.03;4946606;29;20640;-82
2023/07/11 14:16:10;;;;;;;6.00;5.22;;;;;;;32.80;33.97;97058.28;4974611;28;20207;-84
2023/07/11 14:20:15;;;;;;;7.47;5.55;;;;;;;32.58;34.63;97066.75;4898726;29;20647;-84
2023/07/11 14:27:41;;;;;;;6.65;5.40;;;;;;;32.28;35.25;97046.69;4893942;29;20324;-82
2023/07/11 14:31:39;;;;;;;6.88;5.20;;;;;;;32.47;35.23;97060.16;4888923;29;20426;-86
2023/07/11 14:35:23;;;;;;;5.75;4.80;;;;;;;32.13;35.69;97054.13;4861540;29;20211;-81
2023/07/11 14:38:44;;;;;;;7.07;5.50;;;;;;;32.47;35.99;97051.28;4889876;29;20738;-84
2023/07/11 14:42:45;;;;;;;7.35;6.20;;;;;;;32.74;36.14;97053.75;4890906;29;20242;-79
2023/07/11 14:46:22;;;;;;;9.35;6.20;;;;;;;32.54;35.93;97041.38;4934509;29;20201;-88
2023/07/11 14:49:48;;;;;;;7.30;6.00;;;;;;;32.57;35.67;97033.72;4945903;29;20582;-72
2023/07/11 14:53:16;;;;;;;11.52;5.90;;;;;;;32.53;35.16;97039.72;4945888;29;20595;-79
2023/07/11 14:56:38;;;;;;;6.28;5.68;;;;;;;32.61;34.97;97013.50;4935898;28;20652;-84
2023/07/11 15:00:05;;;;;;;9.65;6.22;;;;;;;32.80;35.16;97036.81;4965063;28;20626;-83
2023/07/11 15:03:26;;;;;;;6.43;5.18;;;;;;;32.69;36.05;97028.53;5025453;28;20194;-84
2023/07/11 15:06:48;;;;;;;7.55;6.03;;;;;;;32.63;35.57;97027.53;5010390;28;20202;-79
2023/07/11 15:10:11;;;;;;;7.70;5.65;;;;;;;32.46;35.44;97036.22;5044472;28;20202;-83
2023/07/11 15:13:51;;;;;;;6.45;5.78;;;;;;;32.59;36.23;97036.19;5016401;28;20197;-81
2023/07/11 15:17:13;;;;;;;7.07;6.22;;;;;;;32.51;35.36;97029.19;5045515;28;20225;-82
2023/07/11 15:20:34;;;;;;;7.95;5.45;;;;;;;32.39;34.75;97030.81;5065310;28;20311;-83
2023/07/11 15:23:55;;;;;;;5.85;5.00;;;;;;;32.50;34.52;97048.19;5046663;28;20263;-85
2023/07/11 15:27:17;;;;;;;9.88;6.40;;;;;;;32.59;34.87;97033.50;5016543;28;20212;-82
2023/07/11 15:30:39;;;;;;;7.18;5.53;;;;;;;32.51;34.97;97047.16;5057192;28;20226;-82
2023/07/11 15:33:53;;;;;;;8.05;5.68;;;;;;;32.55;34.91;97030.44;5037230;28;20304;-85
2023/07/11 15:36:35;;;;;;;7.75;5.60;;;;;;;32.31;34.29;97031.03;5044864;28;20340;-82
2023/07/11 15:39:44;;;;;;;5.95;5.35;;;;;;;32.41;33.96;97046.69;5029156;28;20288;-82
2023/07/11 15:43:06;;;;;;;6.78;5.50;;;;;;;32.36;34.38;97036.59;5043531;28;20711;-82
2023/07/11 15:46:29;;;;;;;6.28;5.65;;;;;;;32.38;34.59;97033.69;5042576;28;20213;-81
2023/07/11 15:49:51;;;;;;;8.35;5.32;;;;;;;32.40;33.06;97039.66;5047716;28;20193;-81
2023/07/11 15:53:12;;;;;;;9.25;5.75;;;;;;;32.29;35.02;97035.78;5047933;28;20200;-81
2023/07/11 15:56:33;;;;;;;8.57;6.10;;;;;;;32.22;34.01;97018.84;5069386;28;20193;-78
2023/07/11 15:59:54;;;;;;;8.07;5.70;;;;;;;32.18;35.23;97022.97;5064091;28;20230;-80
2023/07/11 16:03:16;;;;;;;7.68;5.55;;;;;;;32.28;35.03;97022.56;5049160;28;20209;-78
2023/07/11 16:06:38;;;;;;;7.65;5.68;;;;;;;32.34;34.75;97019.88;5033555;28;20213;-85
2023/07/11 16:10:04;;;;;;;9.90;6.00;;;;;;;32.31;34.71;97014.13;5032367;28;20205;-80
2023/07/11 16:13:25;;;;;;;7.63;6.13;;;;;;;32.08;35.10;97019.88;5040966;28;20197;-81
2023/07/11 16:16:47;;;;;;;11.13;6.87;;;;;;;32.00;35.08;97026.28;5070114;28;20197;-85
2023/07/11 16:20:09;;;;;;;6.45;5.63;;;;;;;31.86;36.07;97008.47;5069184;28;20204;-85
2023/07/11 16:23:30;;;;;;;7.60;5.10;;;;;;;31.77;36.60;97007.03;5033898;28;20201;-85
2023/07/11 16:26:52;;;;;;;8.38;5.78;;;;;;;31.76;35.43;97013.41;5051401;28;20212;-81